| time (UTC) | temp F | wind direction | speed MPH | gust MPH | rain 1hr in | rain 24hr in | rain mn in | humidity % | barometer mb |
| 20260505095406 | 49 | 295 | 1.0 | 4.0 | 0.01 | 0.22 | 0.22 | 87 | 1013.2 |
| 20260505094705 | 49 | 295 | 2.0 | 4.0 | 0.02 | 0.22 | 0.22 | 87 | 1013.1 |
| 20260505093814 | 49 | 295 | 1.0 | 6.0 | 0.02 | 0.22 | 0.22 | 87 | 1013.0 |
| 20260505093114 | 49 | 238 | 2.0 | 6.0 | 0.01 | 0.21 | 0.21 | 87 | 1012.9 |
| 20260505092414 | 49 | 250 | 3.0 | 3.0 | 0.01 | 0.21 | 0.21 | 87 | 1013.2 |
| 20260505091523 | 49 | 265 | 2.0 | 6.0 | 0.01 | 0.21 | 0.21 | 87 | 1013.6 |
| 20260505090826 | 49 | 325 | 2.0 | 3.0 | 0.01 | 0.21 | 0.21 | 87 | 1013.7 |
| 20260505090123 | 49 | 332 | 1.0 | 3.0 | 0.01 | 0.21 | 0.21 | 87 | 1013.7 |
| 20260505085423 | 49 | 320 | 2.0 | 3.0 | 0.01 | 0.21 | 0.21 | 87 | 1013.6 |
| 20260505084723 | 49 | 315 | 2.0 | 3.0 | 0.00 | 0.20 | 0.20 | 87 | 1013.7 |
| 20260505084023 | 49 | 315 | 2.0 | 3.0 | 0.00 | 0.20 | 0.20 | 87 | 1013.8 |
| 20260505083323 | 49 | 318 | 1.0 | 3.0 | 0.00 | 0.20 | 0.20 | 87 | 1013.7 |
| 20260505082430 | 49 | 110 | 1.0 | 6.0 | 0.00 | 0.20 | 0.20 | 87 | 1013.7 |
| 20260505081730 | 49 | 278 | 2.0 | 6.0 | 0.00 | 0.20 | 0.20 | 87 | 1013.7 |
| 20260505081030 | 49 | 288 | 3.0 | 6.0 | 0.00 | 0.20 | 0.20 | 87 | 1013.9 |
| 20260505080330 | 49 | 282 | 2.0 | 3.0 | 0.01 | 0.20 | 0.20 | 87 | 1013.9 |
| 20260505075439 | 49 | 322 | 2.0 | 4.0 | 0.01 | 0.20 | 0.20 | 87 | 1014.0 |
| 20260505074739 | 49 | 315 | 2.0 | 3.0 | 0.01 | 0.20 | 0.20 | 87 | 1014.0 |
| 20260505073847 | 49 | 302 | 2.0 | 5.0 | 0.02 | 0.20 | 0.20 | 87 | 1013.7 |
| 20260505073148 | 49 | 260 | 3.0 | 5.0 | 0.03 | 0.20 | 0.20 | 87 | 1013.8 |
| 20260505072447 | 49 | 295 | 2.0 | 4.0 | 0.03 | 0.20 | 0.20 | 88 | 1013.8 |
| 20260505071747 | 49 | 285 | 2.0 | 4.0 | 0.03 | 0.20 | 0.20 | 88 | 1013.7 |
| 20260505070856 | 49 | 312 | 2.0 | 6.0 | 0.02 | 0.19 | 0.19 | 87 | 1013.9 |
| 20260505070156 | 49 | 270 | 3.0 | 6.0 | 0.02 | 0.19 | 0.19 | 88 | 1013.7 |
| 20260505065456 | 49 | 298 | 2.0 | 6.0 | 0.02 | 0.19 | 0.19 | 87 | 1014.2 |
| 20260505064756 | 49 | 202 | 2.0 | 3.0 | 0.02 | 0.19 | 0.19 | 87 | 1014.2 |
| 20260505064056 | 49 | 215 | 2.0 | 3.0 | 0.02 | 0.19 | 0.19 | 87 | 1014.4 |
| 20260505063205 | 50 | 342 | 0.0 | 3.0 | 0.01 | 0.18 | 0.18 | 87 | 1014.5 |
| 20260505062505 | 50 | 321 | 1.0 | 3.0 | 0.00 | 0.17 | 0.17 | 87 | 1014.8 |
| 20260505061805 | 50 | 345 | 1.0 | 3.0 | 0.00 | 0.17 | 0.17 | 87 | 1014.6 |
| 20260505061105 | 50 | 2 | 1.0 | 3.0 | 0.00 | 0.17 | 0.17 | 87 | 1014.2 |
| 20260505060406 | 50 | 239 | 1.0 | 3.0 | 0.00 | 0.17 | 0.17 | 87 | 1014.0 |
| 20260505055704 | 50 | 328 | 1.0 | 3.0 | 0.00 | 0.17 | 0.17 | 87 | 1014.1 |
| 20260505055005 | 50 | 248 | 2.0 | 5.0 | 0.00 | 0.17 | 0.17 | 87 | 1014.0 |
| 20260505054305 | 50 | 267 | 3.0 | 4.0 | 0.00 | 0.17 | 0.17 | 87 | 1014.0 |
| 20260505053604 | 50 | 265 | 2.0 | 4.0 | 0.00 | 0.17 | 0.17 | 87 | 1014.2 |
| 20260505052714 | 50 | 232 | 2.0 | 3.0 | 0.00 | 0.17 | 0.17 | 87 | 1014.2 |
| 20260505051822 | 49 | 228 | 2.0 | 3.0 | 0.00 | 0.17 | 0.17 | 87 | 1014.6 |
| 20260505051122 | 50 | 225 | 2.0 | 2.0 | 0.00 | 0.00 | 0.00 | 87 | 1014.7 |
| 20260505050422 | 49 | 239 | 0.0 | 1.0 | 0.00 | 0.17 | 0.17 | 87 | 1014.8 |
| 20260505041522 | 50 | 242 | 3.0 | 7.0 | 0.00 | 0.17 | 0.17 | 87 | 1014.4 |
| 20260505040630 | 50 | 253 | 2.0 | 6.0 | 0.00 | 0.17 | 0.17 | 87 | 1014.5 |
| 20260505035930 | 50 | 300 | 1.0 | 3.0 | 0.00 | 0.17 | 0.17 | 87 | 1014.4 |
| 20260505035038 | 50 | 292 | 2.0 | 4.0 | 0.00 | 0.17 | 0.17 | 87 | 1014.0 |
| 20260505034338 | 50 | 264 | 2.0 | 3.0 | 0.00 | 0.17 | 0.17 | 87 | 1013.9 |
| 20260505033638 | 50 | 259 | 2.0 | 9.0 | 0.00 | 0.17 | 0.17 | 87 | 1013.7 |
| 20260505032938 | 50 | 267 | 3.0 | 9.0 | 0.00 | 0.17 | 0.17 | 87 | 1013.5 |
| 20260505032238 | 50 | 253 | 3.0 | 6.0 | 0.01 | 0.17 | 0.17 | 87 | 1013.0 |
| 20260505031538 | 50 | 228 | 3.0 | 6.0 | 0.01 | 0.17 | 0.17 | 87 | 1013.1 |
| 20260505030647 | 50 | 248 | 2.0 | 5.0 | 0.02 | 0.17 | 0.17 | 87 | 1013.5 |
| 20260505025947 | 50 | 225 | 2.0 | 5.0 | 0.03 | 0.17 | 0.17 | 87 | 1013.5 |
| 20260505025247 | 50 | 257 | 3.0 | 6.0 | 0.03 | 0.17 | 0.17 | 87 | 1013.8 |
| 20260505024547 | 50 | 248 | 3.0 | 6.0 | 0.03 | 0.17 | 0.17 | 87 | 1014.1 |
| 20260505023847 | 50 | 236 | 2.0 | 4.0 | 0.03 | 0.17 | 0.17 | 87 | 1013.9 |
| 20260505023147 | 50 | 222 | 2.0 | 3.0 | 0.04 | 0.17 | 0.17 | 87 | 1013.9 |
| 20260505022256 | 50 | 200 | 2.0 | 4.0 | 0.04 | 0.16 | 0.16 | 87 | 1014.1 |
| 20260505021556 | 50 | 270 | 2.0 | 4.0 | 0.04 | 0.16 | 0.16 | 87 | 1014.3 |
| 20260505020856 | 50 | 254 | 1.0 | 3.0 | 0.03 | 0.15 | 0.15 | 87 | 1014.3 |
| 20260505020156 | 50 | 225 | 2.0 | 3.0 | 0.02 | 0.14 | 0.14 | 87 | 1014.2 |
| 20260505015456 | 50 | 236 | 1.0 | 3.0 | 0.02 | 0.14 | 0.14 | 87 | 1014.3 |
| 20260505014756 | 50 | 217 | 1.0 | 2.0 | 0.03 | 0.14 | 0.14 | 87 | 1014.2 |
| 20260505013904 | 50 | 222 | 1.0 | 4.0 | 0.03 | 0.14 | 0.14 | 87 | 1014.2 |
| 20260505013013 | 50 | 228 | 2.0 | 4.0 | 0.02 | 0.13 | 0.13 | 87 | 1014.3 |
| 20260505012313 | 50 | 228 | 1.0 | 2.0 | 0.03 | 0.13 | 0.13 | 87 | 1014.5 |
| 20260505011613 | 50 | 231 | 1.0 | 3.0 | 0.02 | 0.12 | 0.12 | 87 | 1014.4 |
| 20260505010914 | 50 | 267 | 2.0 | 6.0 | 0.03 | 0.12 | 0.12 | 87 | 1014.4 |
| 20260505010213 | 50 | 244 | 2.0 | 6.0 | 0.04 | 0.12 | 0.12 | 87 | 1014.4 |
| 20260505005513 | 50 | 214 | 2.0 | 4.0 | 0.04 | 0.12 | 0.12 | 87 | 1014.4 |
| 20260505004813 | 50 | 248 | 2.0 | 4.0 | 0.03 | 0.10 | 0.10 | 87 | 1014.4 |
| 20260505003922 | 50 | 278 | 2.0 | 4.0 | 0.04 | 0.10 | 0.10 | 87 | 1014.3 |
| 20260505003222 | 50 | 253 | 3.0 | 6.0 | 0.04 | 0.10 | 0.10 | 87 | 1014.1 |
| 20260505002522 | 50 | 236 | 2.0 | 6.0 | 0.04 | 0.09 | 0.09 | 87 | 1014.2 |
| 20260505001822 | 50 | 228 | 2.0 | 4.0 | 0.05 | 0.09 | 0.09 | 86 | 1014.2 |
| 20260505001122 | 50 | 238 | 2.0 | 4.0 | 0.04 | 0.08 | 0.08 | 87 | 1014.3 |
| 20260505000422 | 50 | 276 | 2.0 | 4.0 | 0.05 | 0.08 | 0.08 | 86 | 1014.3 |
| 20260504235722 | 50 | 276 | 2.0 | 5.0 | 0.05 | 0.07 | 0.07 | 86 | 1014.4 |
| 20260504234830 | 50 | 273 | 3.0 | 6.0 | 0.06 | 0.07 | 0.07 | 86 | 1014.3 |
| 20260504234130 | 50 | 315 | 2.0 | 4.0 | 0.05 | 0.06 | 0.06 | 86 | 1014.4 |
| 20260504233238 | 50 | 276 | 2.0 | 4.0 | 0.06 | 0.06 | 0.06 | 86 | 1014.3 |
| 20260504232539 | 50 | 278 | 3.0 | 4.0 | 0.05 | 0.05 | 0.05 | 86 | 1014.2 |
| 20260504231840 | 51 | 287 | 2.0 | 4.0 | 0.04 | 0.04 | 0.04 | 86 | 1014.3 |
| 20260504230947 | 51 | 270 | 3.0 | 6.0 | 0.03 | 0.03 | 0.03 | 86 | 1014.4 |
| 20260504230247 | 51 | 256 | 2.0 | 6.0 | 0.03 | 0.03 | 0.03 | 86 | 1014.5 |
| 20260504225547 | 51 | 270 | 3.0 | 6.0 | 0.02 | 0.02 | 0.02 | 86 | 1014.5 |
| 20260504224847 | 51 | 270 | 3.0 | 5.0 | 0.01 | 0.01 | 0.01 | 86 | 1014.4 |
| 20260504224148 | 51 | 292 | 3.0 | 8.0 | 0.01 | 0.01 | 0.01 | 85 | 1014.5 |
| 20260504223447 | 51 | 256 | 3.0 | 8.0 | 0.00 | 0.00 | 0.00 | 85 | 1014.4 |
| 20260504222556 | 52 | 268 | 3.0 | 5.0 | 0.00 | 0.00 | 0.00 | 84 | 1014.4 |
| 20260504221856 | 53 | 272 | 3.0 | 5.0 | 0.00 | 0.00 | 0.00 | 82 | 1014.3 |
| 20260504221156 | 53 | 248 | 2.0 | 4.0 | 0.00 | 0.00 | 0.00 | 82 | 1014.3 |
| 20260504220456 | 53 | 264 | 3.0 | 8.0 | 0.00 | 0.00 | 0.00 | 82 | 1014.4 |
| 20260504215759 | 53 | 275 | 2.0 | 6.0 | 0.00 | 0.00 | 0.00 | 81 | 1014.3 |
| 20260504215056 | 54 | 268 | 3.0 | 6.0 | 0.00 | 0.00 | 0.00 | 80 | 1014.5 |
| 20260504214205 | 55 | 250 | 2.0 | 7.0 | 0.00 | 0.00 | 0.00 | 80 | 1014.6 |
| 20260504213505 | 55 | 278 | 2.0 | 5.0 | 0.00 | 0.00 | 0.00 | 79 | 1014.6 |
| 20260504212805 | 56 | 238 | 3.0 | 6.0 | 0.00 | 0.00 | 0.00 | 79 | 1014.6 |
| 20260504212105 | 56 | 215 | 2.0 | 5.0 | 0.00 | 0.00 | 0.00 | 79 | 1014.7 |
| 20260504211404 | 57 | 210 | 2.0 | 4.0 | 0.00 | 0.00 | 0.00 | 78 | 1014.6 |
| 20260504210705 | 57 | 222 | 2.0 | 5.0 | 0.00 | 0.00 | 0.00 | 78 | 1014.6 |
| 20260504210005 | 57 | 256 | 2.0 | 6.0 | 0.00 | 0.00 | 0.00 | 77 | 1014.6 |
| 20260504205115 | 57 | 272 | 3.0 | 6.0 | 0.00 | 0.00 | 0.00 | 78 | 1014.6 |
| 20260504204413 | 57 | 272 | 3.0 | 9.0 | 0.00 | 0.00 | 0.00 | 78 | 1014.6 |
| 20260504203713 | 57 | 268 | 4.0 | 9.0 | 0.00 | 0.00 | 0.00 | 77 | 1014.6 |
| 20260504203013 | 58 | 268 | 2.0 | 8.0 | 0.00 | 0.00 | 0.00 | 78 | 1014.6 |
| 20260504202122 | 57 | 255 | 3.0 | 8.0 | 0.00 | 0.00 | 0.00 | 78 | 1014.6 |
| 20260504201423 | 57 | 255 | 3.0 | 6.0 | 0.00 | 0.00 | 0.00 | 78 | 1014.5 |
| 20260504200722 | 57 | 210 | 3.0 | 4.0 | 0.00 | 0.00 | 0.00 | 78 | 1014.5 |
| 20260504200022 | 58 | 225 | 3.0 | 6.0 | 0.00 | 0.00 | 0.00 | 77 | 1014.5 |
| 20260504195131 | 58 | 194 | 3.0 | 5.0 | 0.00 | 0.00 | 0.00 | 77 | 1014.5 |
| 20260504194431 | 58 | 210 | 3.0 | 8.0 | 0.00 | 0.00 | 0.00 | 77 | 1014.5 |
| 20260504193733 | 59 | 238 | 3.0 | 5.0 | 0.00 | 0.00 | 0.00 | 76 | 1014.5 |
| 20260504193031 | 59 | 205 | 3.0 | 5.0 | 0.00 | 0.00 | 0.00 | 75 | 1014.4 |
| 20260504192331 | 61 | 220 | 3.0 | 5.0 | 0.00 | 0.00 | 0.00 | 74 | 1014.4 |
| 20260504191631 | 60 | 178 | 3.0 | 5.0 | 0.00 | 0.00 | 0.00 | 74 | 1014.4 |
| 20260504190740 | 60 | 238 | 3.0 | 5.0 | 0.00 | 0.00 | 0.00 | 75 | 1014.4 |
| 20260504190042 | 61 | 220 | 3.0 | 7.0 | 0.00 | 0.00 | 0.00 | 74 | 1014.4 |
| 20260504185340 | 61 | 230 | 3.0 | 9.0 | 0.00 | 0.00 | 0.00 | 73 | 1014.3 |
| 20260504184640 | 59 | 281 | 3.0 | 6.0 | 0.00 | 0.00 | 0.00 | 75 | 1014.4 |
| 20260504183940 | 59 | 285 | 2.0 | 6.0 | 0.00 | 0.00 | 0.00 | 76 | 1014.4 |
| 20260504183240 | 60 | 292 | 3.0 | 7.0 | 0.00 | 0.00 | 0.00 | 74 | 1014.3 |
| 20260504182540 | 58 | 255 | 3.0 | 7.0 | 0.00 | 0.00 | 0.00 | 77 | 1014.3 |
| 20260504181648 | 59 | 225 | 3.0 | 6.0 | 0.00 | 0.00 | 0.00 | 76 | 1014.4 |
| 20260504180948 | 59 | 212 | 3.0 | 6.0 | 0.00 | 0.00 | 0.00 | 74 | 1014.5 |
| 20260504180057 | 57 | 212 | 2.0 | 3.0 | 0.00 | 0.00 | 0.00 | 76 | 1014.5 |
| 20260504175357 | 58 | 335 | 2.0 | 6.0 | 0.00 | 0.00 | 0.00 | 75 | 1014.4 |
| 20260504174700 | 57 | 282 | 3.0 | 6.0 | 0.00 | 0.00 | 0.00 | 77 | 1014.4 |
| 20260504173957 | 57 | 209 | 3.0 | 4.0 | 0.00 | 0.00 | 0.00 | 77 | 1014.4 |
| 20260504173257 | 57 | 18 | 2.0 | 3.0 | 0.00 | 0.00 | 0.00 | 77 | 1014.4 |
| 20260504172405 | 56 | 318 | 2.0 | 4.0 | 0.00 | 0.00 | 0.00 | 78 | 1014.3 |
| 20260504171706 | 56 | 300 | 2.0 | 4.0 | 0.00 | 0.00 | 0.00 | 77 | 1014.2 |
| 20260504171008 | 56 | 335 | 2.0 | 4.0 | 0.00 | 0.00 | 0.00 | 77 | 1014.2 |
| 20260504170306 | 56 | 330 | 2.0 | 5.0 | 0.00 | 0.00 | 0.00 | 76 | 1014.0 |
| 20260504160323 | 53 | 267 | 2.0 | 4.0 | 0.00 | 0.00 | 0.00 | 80 | 1014.1 |
| 20260504150532 | 50 | 332 | 0.0 | 4.0 | 0.00 | 0.00 | 0.00 | 83 | 1014.0 |
| 20260504141249 | 48 | 270 | 1.0 | 4.0 | 0.00 | 0.00 | 0.00 | 85 | 1013.8 |
| 20260504140552 | 48 | 267 | 2.0 | 4.0 | 0.00 | 0.00 | 0.00 | 85 | 1013.8 |
| 20260504130758 | 48 | 257 | 1.0 | 4.0 | 0.00 | 0.00 | 0.00 | 85 | 1013.5 |
| 20260504120115 | 49 | 315 | 0.0 | 2.0 | 0.00 | 0.00 | 0.00 | 85 | 1013.3 |
| 20260504110323 | 49 | 270 | 2.0 | 3.0 | 0.00 | 0.00 | 0.00 | 85 | 1013.1 |
| 20260504100149 | 49 | 273 | 2.0 | 4.0 | 0.00 | 0.00 | 0.00 | 85 | 1013.1 |